sensor_id;sensor_type;location;lat;lon;timestamp;P1;durP1;ratioP1;P2;durP2;ratioP2
53644;SDS011;39547;45.554;12.068;2023-11-19T00:05:35;78.90;;;48.70;;
53644;SDS011;39547;45.554;12.068;2023-11-19T00:11:36;72.80;;;44.75;;
53644;SDS011;39547;45.554;12.068;2023-11-19T00:17:41;80.28;;;47.58;;
53644;SDS011;39547;45.554;12.068;2023-11-19T00:23:48;76.78;;;45.33;;
53644;SDS011;39547;45.554;12.068;2023-11-19T00:29:49;69.38;;;42.38;;
53644;SDS011;39547;45.554;12.068;2023-11-19T00:35:51;77.22;;;45.17;;
53644;SDS011;39547;45.554;12.068;2023-11-19T00:41:52;60.90;;;38.35;;
53644;SDS011;39547;45.554;12.068;2023-11-19T00:47:54;63.38;;;39.00;;
53644;SDS011;39547;45.554;12.068;2023-11-19T00:53:55;57.55;;;35.85;;
53644;SDS011;39547;45.554;12.068;2023-11-19T00:59:57;57.00;;;35.92;;
53644;SDS011;39547;45.554;12.068;2023-11-19T01:05:59;56.72;;;34.88;;
53644;SDS011;39547;45.554;12.068;2023-11-19T01:12:03;49.95;;;32.03;;
53644;SDS011;39547;45.554;12.068;2023-11-19T01:18:05;51.10;;;32.22;;
53644;SDS011;39547;45.554;12.068;2023-11-19T01:24:07;49.42;;;31.63;;
53644;SDS011;39547;45.554;12.068;2023-11-19T01:30:10;47.53;;;30.50;;
53644;SDS011;39547;45.554;12.068;2023-11-19T01:36:15;49.58;;;30.02;;
53644;SDS011;39547;45.554;12.068;2023-11-19T01:42:16;51.28;;;30.80;;
53644;SDS011;39547;45.554;12.068;2023-11-19T01:48:18;50.60;;;29.83;;
53644;SDS011;39547;45.554;12.068;2023-11-19T01:54:19;47.40;;;28.38;;
53644;SDS011;39547;45.554;12.068;2023-11-19T02:00:22;45.42;;;29.10;;
53644;SDS011;39547;45.554;12.068;2023-11-19T02:06:24;48.97;;;29.38;;
53644;SDS011;39547;45.554;12.068;2023-11-19T02:12:27;49.22;;;27.90;;
53644;SDS011;39547;45.554;12.068;2023-11-19T02:18:34;49.92;;;29.98;;
53644;SDS011;39547;45.554;12.068;2023-11-19T02:24:36;51.58;;;29.02;;
53644;SDS011;39547;45.554;12.068;2023-11-19T02:30:38;51.88;;;30.33;;
53644;SDS011;39547;45.554;12.068;2023-11-19T02:36:40;56.67;;;30.40;;
53644;SDS011;39547;45.554;12.068;2023-11-19T02:42:44;54.93;;;29.97;;
53644;SDS011;39547;45.554;12.068;2023-11-19T02:48:45;54.45;;;31.02;;
53644;SDS011;39547;45.554;12.068;2023-11-19T02:54:47;54.83;;;29.77;;
53644;SDS011;39547;45.554;12.068;2023-11-19T03:00:49;60.33;;;30.63;;
53644;SDS011;39547;45.554;12.068;2023-11-19T03:07:13;58.33;;;29.20;;
53644;SDS011;39547;45.554;12.068;2023-11-19T03:13:15;61.80;;;30.40;;
53644;SDS011;39547;45.554;12.068;2023-11-19T03:19:17;62.63;;;30.13;;
53644;SDS011;39547;45.554;12.068;2023-11-19T03:25:19;66.75;;;31.17;;
53644;SDS011;39547;45.554;12.068;2023-11-19T03:31:22;59.28;;;28.90;;
53644;SDS011;39547;45.554;12.068;2023-11-19T03:37:24;64.50;;;30.40;;
53644;SDS011;39547;45.554;12.068;2023-11-19T03:43:26;67.85;;;30.00;;
53644;SDS011;39547;45.554;12.068;2023-11-19T03:49:28;62.35;;;28.45;;
53644;SDS011;39547;45.554;12.068;2023-11-19T03:55:29;60.55;;;28.88;;
53644;SDS011;39547;45.554;12.068;2023-11-19T04:01:32;53.55;;;26.98;;
53644;SDS011;39547;45.554;12.068;2023-11-19T04:07:33;58.30;;;28.25;;
53644;SDS011;39547;45.554;12.068;2023-11-19T04:13:35;63.30;;;29.92;;
53644;SDS011;39547;45.554;12.068;2023-11-19T04:19:36;56.15;;;28.45;;
53644;SDS011;39547;45.554;12.068;2023-11-19T04:25:38;52.90;;;26.33;;
53644;SDS011;39547;45.554;12.068;2023-11-19T04:31:40;56.55;;;27.00;;
53644;SDS011;39547;45.554;12.068;2023-11-19T04:37:42;56.15;;;26.88;;
53644;SDS011;39547;45.554;12.068;2023-11-19T04:43:45;48.10;;;26.17;;
53644;SDS011;39547;45.554;12.068;2023-11-19T04:49:46;46.22;;;25.25;;
53644;SDS011;39547;45.554;12.068;2023-11-19T04:55:48;49.85;;;26.35;;
53644;SDS011;39547;45.554;12.068;2023-11-19T05:01:49;50.47;;;26.25;;
53644;SDS011;39547;45.554;12.068;2023-11-19T05:07:51;57.38;;;28.27;;
53644;SDS011;39547;45.554;12.068;2023-11-19T05:13:53;54.67;;;28.40;;
53644;SDS011;39547;45.554;12.068;2023-11-19T05:19:55;50.33;;;26.23;;
53644;SDS011;39547;45.554;12.068;2023-11-19T05:25:56;43.80;;;24.55;;
53644;SDS011;39547;45.554;12.068;2023-11-19T05:31:59;42.92;;;24.30;;
53644;SDS011;39547;45.554;12.068;2023-11-19T05:38:01;47.83;;;24.10;;
53644;SDS011;39547;45.554;12.068;2023-11-19T05:44:03;45.88;;;23.85;;
53644;SDS011;39547;45.554;12.068;2023-11-19T05:50:05;40.55;;;22.38;;
53644;SDS011;39547;45.554;12.068;2023-11-19T05:56:08;44.35;;;23.15;;
53644;SDS011;39547;45.554;12.068;2023-11-19T06:02:10;42.28;;;22.35;;
53644;SDS011;39547;45.554;12.068;2023-11-19T06:08:12;45.55;;;23.00;;
53644;SDS011;39547;45.554;12.068;2023-11-19T06:14:14;41.13;;;22.38;;
53644;SDS011;39547;45.554;12.068;2023-11-19T06:20:15;39.75;;;21.73;;
53644;SDS011;39547;45.554;12.068;2023-11-19T06:26:18;39.22;;;21.27;;
53644;SDS011;39547;45.554;12.068;2023-11-19T06:32:19;39.15;;;21.08;;
53644;SDS011;39547;45.554;12.068;2023-11-19T06:38:21;38.28;;;21.33;;
53644;SDS011;39547;45.554;12.068;2023-11-19T06:44:22;36.88;;;21.33;;
53644;SDS011;39547;45.554;12.068;2023-11-19T06:50:25;38.58;;;21.10;;
53644;SDS011;39547;45.554;12.068;2023-11-19T06:56:27;37.72;;;20.90;;
53644;SDS011;39547;45.554;12.068;2023-11-19T07:02:28;35.42;;;20.55;;
53644;SDS011;39547;45.554;12.068;2023-11-19T07:08:30;35.83;;;20.90;;
53644;SDS011;39547;45.554;12.068;2023-11-19T07:14:31;34.17;;;19.80;;
53644;SDS011;39547;45.554;12.068;2023-11-19T07:20:33;36.13;;;20.63;;
53644;SDS011;39547;45.554;12.068;2023-11-19T07:26:34;33.80;;;19.73;;
53644;SDS011;39547;45.554;12.068;2023-11-19T07:32:36;32.95;;;19.10;;
53644;SDS011;39547;45.554;12.068;2023-11-19T07:38:39;31.15;;;18.05;;
53644;SDS011;39547;45.554;12.068;2023-11-19T07:44:41;30.52;;;18.25;;
53644;SDS011;39547;45.554;12.068;2023-11-19T07:50:43;31.58;;;18.65;;
53644;SDS011;39547;45.554;12.068;2023-11-19T07:56:45;31.27;;;17.48;;
53644;SDS011;39547;45.554;12.068;2023-11-19T08:02:47;31.02;;;17.92;;
53644;SDS011;39547;45.554;12.068;2023-11-19T08:08:49;30.38;;;18.08;;
53644;SDS011;39547;45.554;12.068;2023-11-19T08:14:50;29.00;;;17.25;;
53644;SDS011;39547;45.554;12.068;2023-11-19T08:20:52;31.73;;;17.20;;
53644;SDS011;39547;45.554;12.068;2023-11-19T08:26:54;31.17;;;17.15;;
53644;SDS011;39547;45.554;12.068;2023-11-19T08:32:55;34.67;;;20.23;;
53644;SDS011;39547;45.554;12.068;2023-11-19T08:38:57;34.53;;;20.55;;
53644;SDS011;39547;45.554;12.068;2023-11-19T08:44:58;34.08;;;19.52;;
53644;SDS011;39547;45.554;12.068;2023-11-19T08:51:00;33.22;;;19.67;;
53644;SDS011;39547;45.554;12.068;2023-11-19T08:57:01;30.60;;;17.63;;
53644;SDS011;39547;45.554;12.068;2023-11-19T09:03:03;28.30;;;16.35;;
53644;SDS011;39547;45.554;12.068;2023-11-19T09:09:05;29.55;;;16.15;;
53644;SDS011;39547;45.554;12.068;2023-11-19T09:15:07;27.15;;;15.27;;
53644;SDS011;39547;45.554;12.068;2023-11-19T09:21:11;26.65;;;14.85;;
53644;SDS011;39547;45.554;12.068;2023-11-19T09:27:13;26.95;;;14.60;;
53644;SDS011;39547;45.554;12.068;2023-11-19T09:33:15;26.98;;;13.68;;
53644;SDS011;39547;45.554;12.068;2023-11-19T09:39:16;23.23;;;12.00;;
53644;SDS011;39547;45.554;12.068;2023-11-19T09:45:20;22.40;;;11.50;;
53644;SDS011;39547;45.554;12.068;2023-11-19T09:51:22;20.75;;;10.70;;
53644;SDS011;39547;45.554;12.068;2023-11-19T09:57:24;20.67;;;11.00;;
53644;SDS011;39547;45.554;12.068;2023-11-19T10:03:26;21.50;;;10.70;;
53644;SDS011;39547;45.554;12.068;2023-11-19T10:09:29;21.30;;;10.02;;
53644;SDS011;39547;45.554;12.068;2023-11-19T10:15:33;18.00;;;8.85;;
53644;SDS011;39547;45.554;12.068;2023-11-19T10:21:37;17.75;;;8.95;;
53644;SDS011;39547;45.554;12.068;2023-11-19T10:27:39;18.70;;;8.57;;
53644;SDS011;39547;45.554;12.068;2023-11-19T10:33:40;20.52;;;9.15;;
53644;SDS011;39547;45.554;12.068;2023-11-19T10:39:52;17.08;;;8.07;;
53644;SDS011;39547;45.554;12.068;2023-11-19T10:46:16;18.45;;;8.70;;
53644;SDS011;39547;45.554;12.068;2023-11-19T10:52:21;18.38;;;8.10;;
53644;SDS011;39547;45.554;12.068;2023-11-19T10:58:23;16.77;;;7.65;;
53644;SDS011;39547;45.554;12.068;2023-11-19T11:04:29;17.42;;;7.40;;
53644;SDS011;39547;45.554;12.068;2023-11-19T11:10:35;18.47;;;7.50;;
53644;SDS011;39547;45.554;12.068;2023-11-19T11:16:58;16.58;;;7.80;;
53644;SDS011;39547;45.554;12.068;2023-11-19T11:35:55;17.67;;;8.15;;
53644;SDS011;39547;45.554;12.068;2023-11-19T11:48:23;18.60;;;9.02;;
53644;SDS011;39547;45.554;12.068;2023-11-19T11:54:28;17.80;;;8.65;;
53644;SDS011;39547;45.554;12.068;2023-11-19T12:00:38;16.63;;;7.88;;
53644;SDS011;39547;45.554;12.068;2023-11-19T12:06:40;18.50;;;8.55;;
53644;SDS011;39547;45.554;12.068;2023-11-19T12:12:41;18.38;;;9.02;;
53644;SDS011;39547;45.554;12.068;2023-11-19T12:18:43;20.20;;;9.32;;
53644;SDS011;39547;45.554;12.068;2023-11-19T12:24:45;19.38;;;9.60;;
53644;SDS011;39547;45.554;12.068;2023-11-19T12:30:49;19.02;;;8.98;;
53644;SDS011;39547;45.554;12.068;2023-11-19T12:36:50;21.08;;;10.20;;
53644;SDS011;39547;45.554;12.068;2023-11-19T12:42:52;22.58;;;11.20;;
53644;SDS011;39547;45.554;12.068;2023-11-19T12:48:55;22.10;;;11.25;;
53644;SDS011;39547;45.554;12.068;2023-11-19T12:54:56;21.25;;;10.23;;
53644;SDS011;39547;45.554;12.068;2023-11-19T13:00:59;22.77;;;10.80;;
53644;SDS011;39547;45.554;12.068;2023-11-19T13:07:05;24.50;;;12.93;;
53644;SDS011;39547;45.554;12.068;2023-11-19T13:13:08;21.55;;;10.95;;
53644;SDS011;39547;45.554;12.068;2023-11-19T13:19:10;21.83;;;10.97;;
53644;SDS011;39547;45.554;12.068;2023-11-19T13:25:11;22.77;;;11.48;;
53644;SDS011;39547;45.554;12.068;2023-11-19T13:31:13;22.90;;;11.00;;
53644;SDS011;39547;45.554;12.068;2023-11-19T13:37:15;22.15;;;10.77;;
53644;SDS011;39547;45.554;12.068;2023-11-19T13:43:16;23.15;;;11.57;;
53644;SDS011;39547;45.554;12.068;2023-11-19T13:49:18;22.00;;;11.07;;
53644;SDS011;39547;45.554;12.068;2023-11-19T13:55:21;17.80;;;8.60;;
53644;SDS011;39547;45.554;12.068;2023-11-19T14:01:23;24.50;;;11.85;;
53644;SDS011;39547;45.554;12.068;2023-11-19T14:07:26;24.65;;;11.38;;
53644;SDS011;39547;45.554;12.068;2023-11-19T14:13:28;24.15;;;11.55;;
53644;SDS011;39547;45.554;12.068;2023-11-19T14:19:30;24.33;;;11.73;;
53644;SDS011;39547;45.554;12.068;2023-11-19T14:25:31;22.58;;;11.02;;
53644;SDS011;39547;45.554;12.068;2023-11-19T14:31:33;22.23;;;9.93;;
53644;SDS011;39547;45.554;12.068;2023-11-19T14:37:34;21.35;;;10.55;;
53644;SDS011;39547;45.554;12.068;2023-11-19T14:43:38;21.10;;;10.00;;
53644;SDS011;39547;45.554;12.068;2023-11-19T14:49:40;22.98;;;10.90;;
53644;SDS011;39547;45.554;12.068;2023-11-19T14:55:42;21.05;;;10.20;;
53644;SDS011;39547;45.554;12.068;2023-11-19T15:01:46;22.70;;;10.93;;
53644;SDS011;39547;45.554;12.068;2023-11-19T15:07:48;21.73;;;9.93;;
53644;SDS011;39547;45.554;12.068;2023-11-19T15:13:49;23.60;;;11.40;;
53644;SDS011;39547;45.554;12.068;2023-11-19T15:19:51;22.30;;;10.90;;
53644;SDS011;39547;45.554;12.068;2023-11-19T15:25:53;23.95;;;11.35;;
53644;SDS011;39547;45.554;12.068;2023-11-19T15:31:55;23.80;;;11.27;;
53644;SDS011;39547;45.554;12.068;2023-11-19T15:37:56;23.70;;;11.77;;
53644;SDS011;39547;45.554;12.068;2023-11-19T15:43:58;25.77;;;13.23;;
53644;SDS011;39547;45.554;12.068;2023-11-19T15:49:59;27.27;;;13.82;;
53644;SDS011;39547;45.554;12.068;2023-11-19T15:56:01;27.00;;;13.70;;
53644;SDS011;39547;45.554;12.068;2023-11-19T16:02:02;26.48;;;13.73;;
53644;SDS011;39547;45.554;12.068;2023-11-19T16:08:04;26.73;;;13.93;;
53644;SDS011;39547;45.554;12.068;2023-11-19T16:14:06;29.90;;;14.60;;
53644;SDS011;39547;45.554;12.068;2023-11-19T16:20:08;28.92;;;15.50;;
53644;SDS011;39547;45.554;12.068;2023-11-19T16:26:11;29.25;;;15.98;;
53644;SDS011;39547;45.554;12.068;2023-11-19T16:32:13;31.05;;;16.90;;
53644;SDS011;39547;45.554;12.068;2023-11-19T16:38:14;33.28;;;17.63;;
53644;SDS011;39547;45.554;12.068;2023-11-19T16:44:16;31.83;;;17.98;;
53644;SDS011;39547;45.554;12.068;2023-11-19T16:50:17;33.58;;;18.58;;
53644;SDS011;39547;45.554;12.068;2023-11-19T16:56:19;32.97;;;18.88;;
53644;SDS011;39547;45.554;12.068;2023-11-19T17:02:21;33.70;;;18.77;;
53644;SDS011;39547;45.554;12.068;2023-11-19T17:08:24;33.38;;;19.55;;
53644;SDS011;39547;45.554;12.068;2023-11-19T17:14:26;35.65;;;21.17;;
53644;SDS011;39547;45.554;12.068;2023-11-19T17:20:28;38.33;;;22.88;;
53644;SDS011;39547;45.554;12.068;2023-11-19T17:26:30;39.72;;;22.38;;
53644;SDS011;39547;45.554;12.068;2023-11-19T17:32:31;39.97;;;22.17;;
53644;SDS011;39547;45.554;12.068;2023-11-19T17:38:33;45.55;;;23.75;;
53644;SDS011;39547;45.554;12.068;2023-11-19T17:44:34;47.70;;;24.35;;
53644;SDS011;39547;45.554;12.068;2023-11-19T17:50:36;50.55;;;26.75;;
53644;SDS011;39547;45.554;12.068;2023-11-19T17:56:37;50.35;;;26.80;;
53644;SDS011;39547;45.554;12.068;2023-11-19T18:02:41;48.95;;;27.17;;
53644;SDS011;39547;45.554;12.068;2023-11-19T18:08:46;47.05;;;26.20;;
53644;SDS011;39547;45.554;12.068;2023-11-19T18:14:47;51.45;;;28.67;;
53644;SDS011;39547;45.554;12.068;2023-11-19T18:20:50;51.92;;;30.15;;
53644;SDS011;39547;45.554;12.068;2023-11-19T18:26:51;56.00;;;32.42;;
53644;SDS011;39547;45.554;12.068;2023-11-19T18:32:53;64.53;;;38.72;;
53644;SDS011;39547;45.554;12.068;2023-11-19T18:38:55;64.25;;;38.53;;
53644;SDS011;39547;45.554;12.068;2023-11-19T18:44:57;68.38;;;40.70;;
53644;SDS011;39547;45.554;12.068;2023-11-19T18:50:58;67.82;;;39.70;;
53644;SDS011;39547;45.554;12.068;2023-11-19T18:57:01;69.97;;;40.33;;
53644;SDS011;39547;45.554;12.068;2023-11-19T19:03:05;69.70;;;43.08;;
53644;SDS011;39547;45.554;12.068;2023-11-19T19:09:08;69.85;;;40.83;;
53644;SDS011;39547;45.554;12.068;2023-11-19T19:15:10;71.07;;;41.17;;
53644;SDS011;39547;45.554;12.068;2023-11-19T19:21:14;71.10;;;41.38;;
53644;SDS011;39547;45.554;12.068;2023-11-19T19:27:16;76.85;;;44.15;;
53644;SDS011;39547;45.554;12.068;2023-11-19T19:33:18;83.28;;;46.92;;
53644;SDS011;39547;45.554;12.068;2023-11-19T19:39:19;79.20;;;46.80;;
53644;SDS011;39547;45.554;12.068;2023-11-19T19:45:21;78.95;;;46.95;;
53644;SDS011;39547;45.554;12.068;2023-11-19T19:51:22;83.18;;;48.30;;
53644;SDS011;39547;45.554;12.068;2023-11-19T19:57:25;81.10;;;47.90;;
53644;SDS011;39547;45.554;12.068;2023-11-19T20:03:27;81.28;;;47.30;;
53644;SDS011;39547;45.554;12.068;2023-11-19T20:09:28;81.40;;;46.13;;
53644;SDS011;39547;45.554;12.068;2023-11-19T20:15:31;82.18;;;46.47;;
53644;SDS011;39547;45.554;12.068;2023-11-19T20:21:32;89.60;;;51.10;;
53644;SDS011;39547;45.554;12.068;2023-11-19T20:27:35;81.63;;;48.70;;
53644;SDS011;39547;45.554;12.068;2023-11-19T20:33:37;88.50;;;50.40;;
53644;SDS011;39547;45.554;12.068;2023-11-19T20:39:39;87.03;;;48.70;;
53644;SDS011;39547;45.554;12.068;2023-11-19T20:45:40;86.93;;;49.33;;
53644;SDS011;39547;45.554;12.068;2023-11-19T20:51:43;86.90;;;50.65;;
53644;SDS011;39547;45.554;12.068;2023-11-19T20:57:45;94.93;;;52.30;;
53644;SDS011;39547;45.554;12.068;2023-11-19T21:03:46;90.13;;;51.80;;
53644;SDS011;39547;45.554;12.068;2023-11-19T21:09:48;86.93;;;52.42;;
53644;SDS011;39547;45.554;12.068;2023-11-19T21:15:49;87.50;;;50.88;;
53644;SDS011;39547;45.554;12.068;2023-11-19T21:21:51;89.57;;;51.85;;
53644;SDS011;39547;45.554;12.068;2023-11-19T21:27:52;90.07;;;51.28;;
53644;SDS011;39547;45.554;12.068;2023-11-19T21:33:54;90.22;;;53.17;;
53644;SDS011;39547;45.554;12.068;2023-11-19T21:39:55;91.38;;;52.35;;
53644;SDS011;39547;45.554;12.068;2023-11-19T21:45:57;91.38;;;51.50;;
53644;SDS011;39547;45.554;12.068;2023-11-19T21:51:59;89.97;;;51.58;;
53644;SDS011;39547;45.554;12.068;2023-11-19T21:58:00;94.70;;;52.08;;
53644;SDS011;39547;45.554;12.068;2023-11-19T22:04:02;90.28;;;52.08;;
53644;SDS011;39547;45.554;12.068;2023-11-19T22:10:04;88.78;;;50.00;;
53644;SDS011;39547;45.554;12.068;2023-11-19T22:16:06;89.22;;;51.42;;
53644;SDS011;39547;45.554;12.068;2023-11-19T22:22:10;90.38;;;52.15;;
53644;SDS011;39547;45.554;12.068;2023-11-19T22:28:12;89.72;;;51.65;;
53644;SDS011;39547;45.554;12.068;2023-11-19T22:34:14;91.20;;;51.53;;
53644;SDS011;39547;45.554;12.068;2023-11-19T22:40:16;93.35;;;52.58;;
53644;SDS011;39547;45.554;12.068;2023-11-19T22:46:18;87.75;;;50.65;;
53644;SDS011;39547;45.554;12.068;2023-11-19T22:52:21;90.47;;;52.13;;
53644;SDS011;39547;45.554;12.068;2023-11-19T22:58:23;91.85;;;52.88;;
53644;SDS011;39547;45.554;12.068;2023-11-19T23:04:24;89.47;;;52.03;;
53644;SDS011;39547;45.554;12.068;2023-11-19T23:10:26;89.85;;;52.55;;
53644;SDS011;39547;45.554;12.068;2023-11-19T23:16:27;91.63;;;52.00;;
53644;SDS011;39547;45.554;12.068;2023-11-19T23:22:28;94.03;;;53.28;;
53644;SDS011;39547;45.554;12.068;2023-11-19T23:28:30;99.22;;;55.70;;
53644;SDS011;39547;45.554;12.068;2023-11-19T23:34:31;96.75;;;55.80;;
53644;SDS011;39547;45.554;12.068;2023-11-19T23:40:33;93.22;;;53.58;;
53644;SDS011;39547;45.554;12.068;2023-11-19T23:46:34;103.40;;;58.42;;
53644;SDS011;39547;45.554;12.068;2023-11-19T23:52:36;100.50;;;54.53;;
53644;SDS011;39547;45.554;12.068;2023-11-19T23:58:38;92.00;;;52.88;;
